Terminal Aerodrome Forecast
Issued by NWS Missoula, MT

Home | Current Version | Previous Version | Text Only | Print | Product List | Glossary On
Versions: 1 2 3 4 5 6 7 8 9 10 11 12 13
087
FTUS45 KMSO 222320
TAFBTM
TAF
KBTM 222320Z 2300/2324 31008KT P6SM VCSH BKN035 OVC050
     FM230600 VRB05KT P6SM VCSH OVC030=

USA.gov is the U.S. government's official web portal to all federal, state and local government web resources and services.